createdAt,value
2018-06-08T00:01:53.312Z,58
2018-06-08T00:07:22.522Z,58
2018-06-08T00:12:52.411Z,58
2018-06-08T00:18:21.453Z,59
2018-06-08T00:23:50.491Z,59
2018-06-08T00:29:19.584Z,59
2018-06-08T00:34:48.613Z,59
2018-06-08T00:40:18.593Z,59
2018-06-08T00:45:47.643Z,60
2018-06-08T00:51:16.643Z,60
2018-06-08T00:56:46.654Z,60
2018-06-08T01:02:16.786Z,60
2018-06-08T01:07:45.652Z,60
2018-06-08T01:13:14.640Z,61
2018-06-08T01:18:43.644Z,61
2018-06-08T01:24:12.630Z,61
2018-06-08T01:29:42.551Z,61
2018-06-08T01:35:12.516Z,61
2018-06-08T01:40:42.488Z,62
2018-06-08T01:46:11.514Z,62
2018-06-08T01:51:40.545Z,62
2018-06-08T01:57:09.411Z,62
2018-06-08T02:02:39.300Z,62
2018-06-08T02:08:09.171Z,63
2018-06-08T02:13:38.088Z,63
2018-06-08T02:19:07.271Z,63
2018-06-08T02:24:36.965Z,64
2018-06-08T02:30:06.910Z,64
2018-06-08T02:35:35.849Z,64
2018-06-08T02:41:05.806Z,64
2018-06-08T02:46:34.723Z,64
2018-06-08T02:52:04.733Z,65
2018-06-08T02:57:33.516Z,65
2018-06-08T03:03:03.429Z,65
2018-06-08T03:08:32.406Z,65
2018-06-08T03:14:01.210Z,65
2018-06-08T03:19:30.106Z,65
2018-06-08T03:24:59.008Z,65
2018-06-08T03:30:28.945Z,65
2018-06-08T03:35:59.025Z,66
2018-06-08T03:41:27.750Z,66
2018-06-08T03:46:56.780Z,67
2018-06-08T03:52:25.534Z,68
2018-06-08T03:57:55.539Z,68
2018-06-08T04:03:25.443Z,68
2018-06-08T04:08:55.303Z,68
2018-06-08T04:14:24.322Z,68
2018-06-08T04:19:53.271Z,69
2018-06-08T04:25:22.342Z,69
2018-06-08T04:30:51.222Z,69
2018-06-08T04:36:20.226Z,70
2018-06-08T04:41:49.222Z,70
2018-06-08T04:47:18.161Z,70
2018-06-08T04:52:47.192Z,70
2018-06-08T04:58:17.293Z,70
2018-06-08T05:03:47.230Z,71
2018-06-08T05:09:17.266Z,71
2018-06-08T05:14:46.436Z,71
2018-06-08T05:20:16.438Z,71
2018-06-08T05:25:45.442Z,71
2018-06-08T05:31:14.637Z,71
2018-06-08T05:36:44.623Z,71
2018-06-08T05:36:45.107Z,71
2018-06-08T05:42:13.771Z,71
2018-06-08T05:47:42.841Z,71
2018-06-08T05:53:11.987Z,71
2018-06-08T05:58:41.203Z,71
2018-06-08T06:04:10.388Z,71
2018-06-08T06:09:40.523Z,71
2018-06-08T06:15:10.728Z,70
2018-06-08T06:20:39.928Z,70
2018-06-08T06:26:10.531Z,70
2018-06-08T06:26:10.974Z,70
2018-06-08T06:31:39.418Z,69
2018-06-08T06:37:08.683Z,69
2018-06-08T06:42:39.041Z,68
2018-06-08T06:48:09.462Z,68
2018-06-08T06:53:39.665Z,68
2018-06-08T06:59:09.974Z,67
2018-06-08T07:04:39.399Z,66
2018-06-08T07:10:08.735Z,66
2018-06-08T07:15:38.201Z,65
2018-06-08T07:21:07.620Z,65
2018-06-08T07:26:37.039Z,64
2018-06-08T07:32:07.618Z,63
2018-06-08T07:37:36.988Z,63
2018-06-08T07:43:07.531Z,63
2018-06-08T07:48:37.001Z,62
2018-06-08T07:54:06.762Z,61
2018-06-08T07:59:36.106Z,61
2018-06-08T08:05:05.676Z,60
2018-06-08T08:10:35.272Z,60
2018-06-08T08:16:04.894Z,59
2018-06-08T08:21:34.561Z,59
2018-06-08T08:27:05.147Z,58
2018-06-08T08:32:35.817Z,58
2018-06-08T08:38:05.531Z,57
2018-06-08T08:43:35.175Z,57
2018-06-08T08:49:05.037Z,56
2018-06-08T08:54:34.570Z,56
2018-06-08T09:00:04.425Z,55
2018-06-08T09:05:34.074Z,54
2018-06-08T09:11:03.830Z,54
2018-06-08T09:16:34.516Z,53
2018-06-08T09:22:04.411Z,53
2018-06-08T09:22:04.707Z,53
2018-06-08T09:27:34.027Z,52
2018-06-08T09:33:03.862Z,52
2018-06-08T09:38:34.594Z,51
2018-06-08T09:44:05.381Z,50
2018-06-08T09:49:35.410Z,50
2018-06-08T09:55:05.082Z,49
2018-06-08T10:00:34.880Z,49
2018-06-08T10:06:04.808Z,48
2018-06-08T10:11:34.638Z,48
2018-06-08T10:17:04.418Z,47
2018-06-08T10:22:34.388Z,47
2018-06-08T10:28:04.156Z,47
2018-06-08T10:33:33.954Z,47
2018-06-08T10:39:03.826Z,46
2018-06-08T10:44:34.694Z,46
2018-06-08T10:50:04.631Z,45
2018-06-08T10:55:34.560Z,45
2018-06-08T11:01:05.573Z,44
2018-06-08T11:06:35.566Z,44
2018-06-08T11:12:05.466Z,44
2018-06-08T11:17:36.553Z,43
2018-06-08T11:23:07.493Z,43
2018-06-08T11:28:37.675Z,42
2018-06-08T11:34:08.644Z,41
2018-06-08T11:39:39.563Z,41
2018-06-08T11:45:10.802Z,40
2018-06-08T11:50:40.957Z,40
2018-06-08T11:56:11.870Z,40
2018-06-08T12:01:42.011Z,40
2018-06-08T12:07:12.072Z,39
2018-06-08T12:12:43.247Z,39
2018-06-08T12:18:13.362Z,39
2018-06-08T12:23:43.477Z,39
2018-06-08T12:29:14.538Z,39
2018-06-08T12:34:44.676Z,39
2018-06-08T12:40:14.788Z,39
2018-06-08T12:45:44.904Z,38
2018-06-08T12:51:16.050Z,38
2018-06-08T12:56:47.166Z,38
2018-06-08T13:02:18.325Z,38
2018-06-08T13:07:48.471Z,38
2018-06-08T13:13:18.699Z,37
2018-06-08T13:18:48.856Z,37
2018-06-08T13:24:20.196Z,37
2018-06-08T13:29:51.099Z,37
2018-06-08T13:35:22.358Z,37
2018-06-08T13:40:53.537Z,37
2018-06-08T13:46:23.687Z,37
2018-06-08T13:51:54.823Z,36
2018-06-08T13:57:26.619Z,36
2018-06-08T14:02:56.250Z,36
2018-06-08T14:08:27.408Z,36
2018-06-08T14:13:58.569Z,36
2018-06-08T14:19:29.773Z,36
2018-06-08T14:25:01.524Z,36
2018-06-08T14:30:31.380Z,36
2018-06-08T14:36:02.389Z,37
2018-06-08T14:41:32.731Z,37
2018-06-08T14:47:03.849Z,37
2018-06-08T14:52:35.303Z,37
2018-06-08T14:58:06.485Z,37
2018-06-08T15:03:36.539Z,37
2018-06-08T15:09:06.721Z,37
2018-06-08T15:14:36.939Z,37
2018-06-08T15:20:08.111Z,37
2018-06-08T15:25:38.240Z,37
2018-06-08T15:31:08.466Z,37
2018-06-08T15:36:38.583Z,37
2018-06-08T15:42:09.739Z,37
2018-06-08T15:47:39.890Z,37
2018-06-08T15:53:11.027Z,38
2018-06-08T15:53:11.473Z,38
2018-06-08T15:58:41.175Z,38
2018-06-08T16:04:11.403Z,38
2018-06-08T16:09:41.494Z,39
2018-06-08T16:15:11.637Z,39
2018-06-08T16:20:42.728Z,40
2018-06-08T16:26:13.751Z,40
2018-06-08T16:31:44.777Z,40
2018-06-08T16:37:14.822Z,41
2018-06-08T16:42:44.900Z,41
2018-06-08T16:48:16.036Z,41
2018-06-08T16:53:46.021Z,42
2018-06-08T16:59:16.025Z,42
2018-06-08T17:04:46.031Z,42
2018-06-08T17:10:16.030Z,43
2018-06-08T17:15:46.022Z,43
2018-06-08T17:21:16.113Z,43
2018-06-08T17:26:47.159Z,44
2018-06-08T17:32:18.028Z,44
2018-06-08T17:37:48.941Z,44
2018-06-08T17:43:19.977Z,44
2018-06-08T17:48:51.120Z,44
2018-06-08T17:54:21.785Z,44
2018-06-08T17:59:52.714Z,44
2018-06-08T18:05:22.646Z,44
2018-06-08T18:10:52.699Z,44
2018-06-08T18:16:22.536Z,45
2018-06-08T18:21:53.366Z,45
2018-06-08T18:27:23.557Z,45
2018-06-08T18:32:53.152Z,45
2018-06-08T18:38:23.033Z,46
2018-06-08T18:43:53.913Z,46
2018-06-08T18:49:24.737Z,46
2018-06-08T18:54:54.564Z,46
2018-06-08T19:00:25.479Z,47
2018-06-08T19:05:55.216Z,47
2018-06-08T19:11:25.052Z,47
2018-06-08T19:16:55.921Z,47
2018-06-08T19:22:25.737Z,48
2018-06-08T19:27:55.602Z,48
2018-06-08T19:33:31.283Z,48
2018-06-08T19:38:56.206Z,49
2018-06-08T19:44:25.729Z,49
2018-06-08T19:49:55.503Z,49
2018-06-08T19:55:26.184Z,50
2018-06-08T20:00:56.950Z,50
2018-06-08T20:06:26.725Z,50
2018-06-08T20:11:57.437Z,51
2018-06-08T20:17:27.086Z,51
2018-06-08T20:22:57.843Z,51
2018-06-08T20:28:28.681Z,51
2018-06-08T20:33:59.185Z,52
2018-06-08T20:39:29.867Z,52
2018-06-08T20:44:59.616Z,52
2018-06-08T20:50:30.568Z,52
2018-06-08T20:56:00.811Z,53
2018-06-08T21:01:30.417Z,53
2018-06-08T21:07:01.053Z,53
2018-06-08T21:12:30.591Z,54
2018-06-08T21:18:01.182Z,54
2018-06-08T21:23:30.680Z,54
2018-06-08T21:29:00.253Z,55
2018-06-08T21:34:30.704Z,55
2018-06-08T21:40:00.194Z,55
2018-06-08T21:45:30.690Z,55
2018-06-08T21:51:01.206Z,56
2018-06-08T21:56:30.658Z,56
2018-06-08T22:02:00.225Z,56
2018-06-08T22:07:30.610Z,56
2018-06-08T22:13:01.079Z,56
2018-06-08T22:18:30.612Z,56
2018-06-08T22:24:01.131Z,56
2018-06-08T22:29:31.529Z,57
2018-06-08T22:35:01.056Z,57
2018-06-08T22:40:30.419Z,57
2018-06-08T22:45:59.893Z,58
2018-06-08T22:51:29.268Z,58
2018-06-08T22:56:58.684Z,58
2018-06-08T23:02:28.112Z,59
2018-06-08T23:07:57.538Z,59
2018-06-08T23:13:27.192Z,59
2018-06-08T23:18:56.497Z,59
2018-06-08T23:24:26.817Z,60
2018-06-08T23:29:56.246Z,60
2018-06-08T23:35:26.620Z,61
2018-06-08T23:40:56.013Z,61
2018-06-08T23:46:25.497Z,61
2018-06-08T23:51:54.873Z,61
2018-06-08T23:57:25.346Z,61
